UAL473 KJAC-KBOI
Flight info
| Callsign | UAL473 |
|---|---|
| Flight time | 0h 50m |
| Altitude | 36000 |
| Route | DIVYD HUKET IDA DERSO KOURT4 |
| Aircraft | A319/M-SDE3FGHIRWY/LB1 |
Departure
| Time | 2026-05-05 22:03 |
|---|---|
| Airport | Jackson Hole Airport (KJAC) |
Arrival
| Time | 2026-05-05 22:53 |
|---|---|
| Airport | Boise Air Terminal/Gowen Field (KBOI) |
| Time | Latitude | Longitude | Altitude | Speed | Heading |
|---|---|---|---|---|---|
| 2026-05-05 21:47 | 43.60224 | -110.73770 | 6431 ft | 0 kts | 109° |
| 2026-05-05 21:56 | 43.60225 | -110.73775 | 6434 ft | 2 kts | 110° |
| 2026-05-05 21:57 | 43.60231 | -110.73796 | 6434 ft | 2 kts | 116° |
| 2026-05-05 21:57 | 43.60239 | -110.73816 | 6434 ft | 2 kts | 126° |
| 2026-05-05 21:57 | 43.60249 | -110.73833 | 6434 ft | 2 kts | 144° |
| 2026-05-05 21:57 | 43.60264 | -110.73844 | 6434 ft | 2 kts | 180° |
| 2026-05-05 21:58 | 43.60278 | -110.73842 | 6434 ft | 1 kts | 198° |
| 2026-05-05 21:58 | 43.60280 | -110.73841 | 6430 ft | 0 kts | 198° |
| 2026-05-05 21:59 | 43.60243 | -110.73858 | 6432 ft | 12 kts | 198° |
| 2026-05-05 22:00 | 43.60144 | -110.73904 | 6433 ft | 17 kts | 199° |
| 2026-05-05 22:00 | 43.60024 | -110.73961 | 6434 ft | 17 kts | 199° |
| 2026-05-05 22:00 | 43.59954 | -110.73995 | 6434 ft | 8 kts | 199° |
| 2026-05-05 22:00 | 43.59905 | -110.74029 | 6431 ft | 6 kts | 243° |
| 2026-05-05 22:01 | 43.59919 | -110.74104 | 6433 ft | 10 kts | 289° |
| 2026-05-05 22:01 | 43.59931 | -110.74150 | 6431 ft | 1 kts | 292° |
| 2026-05-05 22:01 | 43.59949 | -110.74160 | 6432 ft | 5 kts | 0° |
| 2026-05-05 22:01 | 43.59972 | -110.74151 | 6432 ft | 0 kts | 19° |
| 2026-05-05 22:02 | 43.59990 | -110.74143 | 6433 ft | 9 kts | 19° |
| 2026-05-05 22:02 | 43.60200 | -110.74040 | 6430 ft | 62 kts | 19° |
| 2026-05-05 22:02 | 43.60839 | -110.73729 | 6438 ft | 131 kts | 19° |
| 2026-05-05 22:03 | 43.61816 | -110.73251 | 6726 ft | 155 kts | 19° |
| 2026-05-05 22:03 | 43.62834 | -110.72743 | 7421 ft | 157 kts | 20° |
| 2026-05-05 22:03 | 43.63860 | -110.72241 | 8241 ft | 157 kts | 21° |
| 2026-05-05 22:03 | 43.64926 | -110.71718 | 8644 ft | 170 kts | 19° |
| 2026-05-05 22:04 | 43.66121 | -110.71122 | 8875 ft | 194 kts | 20° |
| 2026-05-05 22:04 | 43.67432 | -110.70350 | 9112 ft | 218 kts | 33° |
| 2026-05-05 22:04 | 43.68410 | -110.68632 | 9364 ft | 246 kts | 61° |
| 2026-05-05 22:04 | 43.69231 | -110.66417 | 9799 ft | 271 kts | 62° |
| 2026-05-05 22:05 | 43.70121 | -110.64008 | 10248 ft | 292 kts | 60° |
| 2026-05-05 22:05 | 43.71105 | -110.61446 | 10617 ft | 315 kts | 60° |
| 2026-05-05 22:05 | 43.72187 | -110.58741 | 11264 ft | 325 kts | 58° |
| 2026-05-05 22:05 | 43.73319 | -110.55993 | 12062 ft | 330 kts | 58° |
| 2026-05-05 22:06 | 43.74516 | -110.53271 | 12842 ft | 333 kts | 50° |
| 2026-05-05 22:06 | 43.76177 | -110.51048 | 13580 ft | 333 kts | 31° |
| 2026-05-05 22:06 | 43.78263 | -110.49685 | 14293 ft | 333 kts | 12° |
| 2026-05-05 22:06 | 43.80552 | -110.49309 | 15023 ft | 331 kts | 354° |
| 2026-05-05 22:07 | 43.82778 | -110.49935 | 15747 ft | 329 kts | 337° |
| 2026-05-05 22:07 | 43.84915 | -110.51119 | 16484 ft | 330 kts | 335° |
| 2026-05-05 22:07 | 43.87054 | -110.52321 | 17188 ft | 332 kts | 334° |
| 2026-05-05 22:07 | 43.89183 | -110.53518 | 17896 ft | 333 kts | 334° |
| 2026-05-05 22:08 | 43.91348 | -110.54734 | 18582 ft | 335 kts | 334° |
| 2026-05-05 22:08 | 43.93520 | -110.55955 | 19276 ft | 337 kts | 334° |
| 2026-05-05 22:08 | 43.95703 | -110.57188 | 19952 ft | 340 kts | 334° |
| 2026-05-05 22:08 | 43.97901 | -110.58425 | 20566 ft | 342 kts | 334° |
| 2026-05-05 22:09 | 44.00091 | -110.59650 | 21175 ft | 344 kts | 334° |
| 2026-05-05 22:09 | 44.02322 | -110.60900 | 21823 ft | 345 kts | 334° |
| 2026-05-05 22:09 | 44.04555 | -110.62156 | 22472 ft | 347 kts | 334° |
| 2026-05-05 22:09 | 44.06779 | -110.63409 | 23095 ft | 348 kts | 334° |
| 2026-05-05 22:10 | 44.09032 | -110.64682 | 23695 ft | 350 kts | 334° |
| 2026-05-05 22:10 | 44.11291 | -110.65961 | 24295 ft | 351 kts | 335° |
| 2026-05-05 22:10 | 44.13568 | -110.67247 | 24865 ft | 353 kts | 335° |
| 2026-05-05 22:10 | 44.15708 | -110.68879 | 25385 ft | 351 kts | 321° |
| 2026-05-05 22:11 | 44.17350 | -110.71347 | 25864 ft | 356 kts | 305° |
| 2026-05-05 22:11 | 44.18339 | -110.74552 | 26332 ft | 367 kts | 288° |
| 2026-05-05 22:11 | 44.18474 | -110.78167 | 26751 ft | 386 kts | 269° |
| 2026-05-05 22:11 | 44.17599 | -110.81819 | 27141 ft | 411 kts | 248° |
| 2026-05-05 22:12 | 44.15969 | -110.85173 | 27492 ft | 422 kts | 243° |
| 2026-05-05 22:12 | 44.14259 | -110.88478 | 27834 ft | 427 kts | 243° |
| 2026-05-05 22:12 | 44.12494 | -110.91844 | 28188 ft | 432 kts | 243° |
| 2026-05-05 22:12 | 44.10707 | -110.95242 | 28523 ft | 436 kts | 243° |
| 2026-05-05 22:13 | 44.08925 | -110.98638 | 28840 ft | 441 kts | 243° |
| 2026-05-05 22:13 | 44.07114 | -111.02102 | 29176 ft | 445 kts | 243° |
| 2026-05-05 22:13 | 44.05284 | -111.05611 | 29499 ft | 449 kts | 244° |
| 2026-05-05 22:13 | 44.03433 | -111.09160 | 29808 ft | 454 kts | 244° |
| 2026-05-05 22:14 | 44.01589 | -111.12696 | 30099 ft | 458 kts | 244° |
| 2026-05-05 22:14 | 43.99705 | -111.16307 | 30429 ft | 461 kts | 244° |
| 2026-05-05 22:14 | 43.97812 | -111.19933 | 30768 ft | 464 kts | 244° |
| 2026-05-05 22:14 | 43.95924 | -111.23546 | 31084 ft | 466 kts | 243° |
| 2026-05-05 22:15 | 43.94008 | -111.27213 | 31359 ft | 471 kts | 244° |
| 2026-05-05 22:15 | 43.92073 | -111.30907 | 31649 ft | 473 kts | 244° |
| 2026-05-05 22:15 | 43.90144 | -111.34577 | 31948 ft | 476 kts | 243° |
| 2026-05-05 22:15 | 43.88174 | -111.38317 | 32235 ft | 479 kts | 243° |
| 2026-05-05 22:16 | 43.86199 | -111.42056 | 32604 ft | 479 kts | 243° |
| 2026-05-05 22:16 | 43.84224 | -111.45787 | 32982 ft | 479 kts | 243° |
| 2026-05-05 22:16 | 43.82275 | -111.49472 | 33365 ft | 479 kts | 243° |
| 2026-05-05 22:16 | 43.80300 | -111.53201 | 33755 ft | 479 kts | 243° |
| 2026-05-05 22:17 | 43.78322 | -111.56934 | 34136 ft | 480 kts | 243° |
| 2026-05-05 22:17 | 43.76362 | -111.60632 | 34520 ft | 480 kts | 243° |
| 2026-05-05 22:17 | 43.74388 | -111.64353 | 34928 ft | 479 kts | 243° |
| 2026-05-05 22:17 | 43.72415 | -111.68064 | 35339 ft | 478 kts | 242° |
| 2026-05-05 22:18 | 43.70442 | -111.71769 | 35735 ft | 476 kts | 242° |
| 2026-05-05 22:18 | 43.68496 | -111.75425 | 35894 ft | 475 kts | 242° |
| 2026-05-05 22:18 | 43.66544 | -111.79077 | 35926 ft | 469 kts | 242° |
| 2026-05-05 22:19 | 43.62677 | -111.86300 | 35923 ft | 465 kts | 242° |
| 2026-05-05 22:19 | 43.58847 | -111.93459 | 35924 ft | 465 kts | 242° |
| 2026-05-05 22:20 | 43.54991 | -112.00662 | 35923 ft | 463 kts | 244° |
| 2026-05-05 22:20 | 43.53386 | -112.04437 | 35923 ft | 451 kts | 254° |
| 2026-05-05 22:20 | 43.52304 | -112.08386 | 35928 ft | 440 kts | 264° |
| 2026-05-05 22:20 | 43.51715 | -112.12462 | 35923 ft | 428 kts | 274° |
| 2026-05-05 22:21 | 43.51525 | -112.16529 | 35923 ft | 423 kts | 277° |
| 2026-05-05 22:21 | 43.51218 | -112.24603 | 35921 ft | 424 kts | 276° |
| 2026-05-05 22:22 | 43.50893 | -112.32711 | 35920 ft | 424 kts | 276° |
| 2026-05-05 22:22 | 43.50551 | -112.40852 | 35921 ft | 424 kts | 276° |
| 2026-05-05 22:23 | 43.50209 | -112.48791 | 35923 ft | 402 kts | 276° |
| 2026-05-05 22:23 | 43.49889 | -112.56337 | 35913 ft | 393 kts | 277° |
| 2026-05-05 22:24 | 43.49584 | -112.63819 | 35916 ft | 392 kts | 277° |
| 2026-05-05 22:24 | 43.49266 | -112.71334 | 35915 ft | 392 kts | 276° |
| 2026-05-05 22:25 | 43.48942 | -112.78819 | 35915 ft | 393 kts | 276° |
| 2026-05-05 22:25 | 43.48614 | -112.86352 | 35913 ft | 393 kts | 276° |
| 2026-05-05 22:26 | 43.48276 | -112.93839 | 35903 ft | 393 kts | 276° |
| 2026-05-05 22:26 | 43.47932 | -113.01375 | 35896 ft | 394 kts | 276° |
| 2026-05-05 22:27 | 43.47582 | -113.08892 | 35905 ft | 397 kts | 276° |
| 2026-05-05 22:27 | 43.47228 | -113.16665 | 35909 ft | 414 kts | 276° |
| 2026-05-05 22:28 | 43.46856 | -113.24703 | 35905 ft | 428 kts | 275° |
| 2026-05-05 22:28 | 43.46446 | -113.32925 | 35906 ft | 431 kts | 275° |
| 2026-05-05 22:28 | 43.46240 | -113.37012 | 35702 ft | 433 kts | 275° |
| 2026-05-05 22:29 | 43.46029 | -113.41147 | 35453 ft | 432 kts | 275° |
| 2026-05-05 22:29 | 43.45817 | -113.45286 | 35204 ft | 432 kts | 275° |
| 2026-05-05 22:29 | 43.45606 | -113.49385 | 34957 ft | 433 kts | 275° |
| 2026-05-05 22:29 | 43.45396 | -113.53551 | 34701 ft | 432 kts | 275° |
| 2026-05-05 22:30 | 43.45189 | -113.57674 | 34452 ft | 431 kts | 276° |
| 2026-05-05 22:30 | 43.44986 | -113.61736 | 34202 ft | 429 kts | 276° |
| 2026-05-05 22:30 | 43.44776 | -113.65822 | 33952 ft | 427 kts | 276° |
| 2026-05-05 22:30 | 43.44565 | -113.69878 | 33704 ft | 426 kts | 276° |
| 2026-05-05 22:31 | 43.44353 | -113.73943 | 33450 ft | 424 kts | 276° |
| 2026-05-05 22:31 | 43.44141 | -113.77998 | 33199 ft | 423 kts | 276° |
| 2026-05-05 22:31 | 43.43928 | -113.82032 | 32946 ft | 421 kts | 276° |
| 2026-05-05 22:31 | 43.43713 | -113.86017 | 32701 ft | 419 kts | 276° |
| 2026-05-05 22:32 | 43.43495 | -113.90014 | 32449 ft | 417 kts | 276° |
| 2026-05-05 22:32 | 43.43281 | -113.93995 | 32191 ft | 413 kts | 276° |
| 2026-05-05 22:32 | 43.43068 | -113.97888 | 31775 ft | 410 kts | 276° |
| 2026-05-05 22:32 | 43.42853 | -114.01800 | 31303 ft | 408 kts | 276° |
| 2026-05-05 22:33 | 43.42637 | -114.05697 | 30850 ft | 406 kts | 275° |
| 2026-05-05 22:33 | 43.42424 | -114.09517 | 30405 ft | 403 kts | 275° |
| 2026-05-05 22:33 | 43.42209 | -114.13373 | 29948 ft | 400 kts | 275° |
| 2026-05-05 22:33 | 43.41995 | -114.17191 | 29506 ft | 398 kts | 275° |
| 2026-05-05 22:34 | 43.41782 | -114.20977 | 29080 ft | 395 kts | 275° |
| 2026-05-05 22:34 | 43.41573 | -114.24690 | 28657 ft | 392 kts | 275° |
| 2026-05-05 22:34 | 43.41359 | -114.28442 | 28245 ft | 390 kts | 275° |
| 2026-05-05 22:34 | 43.41144 | -114.32155 | 27834 ft | 387 kts | 274° |
| 2026-05-05 22:35 | 43.40929 | -114.35840 | 27440 ft | 384 kts | 274° |
| 2026-05-05 22:35 | 43.40718 | -114.39466 | 27049 ft | 382 kts | 274° |
| 2026-05-05 22:35 | 43.40506 | -114.43102 | 26657 ft | 379 kts | 274° |
| 2026-05-05 22:35 | 43.40293 | -114.46715 | 26268 ft | 376 kts | 274° |
| 2026-05-05 22:36 | 43.40084 | -114.50247 | 25886 ft | 373 kts | 274° |
| 2026-05-05 22:36 | 43.39873 | -114.53785 | 25495 ft | 370 kts | 274° |
| 2026-05-05 22:36 | 43.39666 | -114.57293 | 25099 ft | 366 kts | 274° |
| 2026-05-05 22:36 | 43.39462 | -114.60773 | 24705 ft | 362 kts | 274° |
| 2026-05-05 22:37 | 43.39258 | -114.64219 | 24292 ft | 360 kts | 273° |
| 2026-05-05 22:37 | 43.39054 | -114.67633 | 23888 ft | 357 kts | 273° |
| 2026-05-05 22:37 | 43.38847 | -114.71027 | 23476 ft | 354 kts | 272° |
| 2026-05-05 22:37 | 43.38643 | -114.74354 | 23068 ft | 352 kts | 272° |
| 2026-05-05 22:38 | 43.38437 | -114.77701 | 22664 ft | 349 kts | 272° |
| 2026-05-05 22:38 | 43.38232 | -114.81034 | 22224 ft | 347 kts | 272° |
| 2026-05-05 22:38 | 43.38027 | -114.84340 | 21812 ft | 345 kts | 271° |
| 2026-05-05 22:38 | 43.37823 | -114.87586 | 21405 ft | 343 kts | 271° |
| 2026-05-05 22:39 | 43.37617 | -114.90848 | 20976 ft | 341 kts | 271° |
| 2026-05-05 22:39 | 43.37412 | -114.94091 | 20568 ft | 338 kts | 271° |
| 2026-05-05 22:39 | 43.37209 | -114.97305 | 20142 ft | 336 kts | 271° |
| 2026-05-05 22:39 | 43.37010 | -115.00458 | 19868 ft | 329 kts | 271° |
| 2026-05-05 22:40 | 43.36810 | -115.03538 | 19731 ft | 316 kts | 270° |
| 2026-05-05 22:40 | 43.36680 | -115.05500 | 19643 ft | 304 kts | 271° |
| 2026-05-05 22:40 | 43.36428 | -115.09264 | 19218 ft | 292 kts | 271° |
| 2026-05-05 22:40 | 43.36307 | -115.11129 | 18911 ft | 287 kts | 272° |
| 2026-05-05 22:41 | 43.36354 | -115.13812 | 18427 ft | 279 kts | 283° |
| 2026-05-05 22:41 | 43.36728 | -115.16390 | 17937 ft | 272 kts | 290° |
| 2026-05-05 22:41 | 43.37210 | -115.18903 | 17473 ft | 271 kts | 289° |
| 2026-05-05 22:41 | 43.37683 | -115.21427 | 17129 ft | 272 kts | 289° |
| 2026-05-05 22:42 | 43.38301 | -115.24789 | 16663 ft | 274 kts | 288° |
| 2026-05-05 22:42 | 43.38617 | -115.26515 | 16430 ft | 280 kts | 288° |
| 2026-05-05 22:42 | 43.39124 | -115.29254 | 16060 ft | 305 kts | 288° |
| 2026-05-05 22:42 | 43.39645 | -115.32079 | 15687 ft | 310 kts | 288° |
| 2026-05-05 22:43 | 43.40171 | -115.34968 | 15276 ft | 310 kts | 288° |
| 2026-05-05 22:43 | 43.40696 | -115.37847 | 14864 ft | 309 kts | 287° |
| 2026-05-05 22:43 | 43.41218 | -115.40726 | 14471 ft | 309 kts | 287° |
| 2026-05-05 22:43 | 43.41739 | -115.43570 | 14082 ft | 309 kts | 287° |
| 2026-05-05 22:44 | 43.42265 | -115.46432 | 13688 ft | 307 kts | 287° |
| 2026-05-05 22:44 | 43.42780 | -115.49252 | 13326 ft | 305 kts | 287° |
| 2026-05-05 22:44 | 43.43291 | -115.52057 | 13052 ft | 299 kts | 287° |
| 2026-05-05 22:44 | 43.43799 | -115.54839 | 12696 ft | 298 kts | 287° |
| 2026-05-05 22:45 | 43.44298 | -115.57571 | 12313 ft | 296 kts | 286° |
| 2026-05-05 22:45 | 43.44644 | -115.60381 | 11908 ft | 297 kts | 276° |
| 2026-05-05 22:45 | 43.44770 | -115.63236 | 11484 ft | 297 kts | 276° |
| 2026-05-05 22:45 | 43.44907 | -115.66074 | 11042 ft | 298 kts | 276° |
| 2026-05-05 22:46 | 43.45044 | -115.68892 | 10638 ft | 297 kts | 276° |
| 2026-05-05 22:46 | 43.45168 | -115.71744 | 10253 ft | 296 kts | 275° |
| 2026-05-05 22:46 | 43.45278 | -115.74571 | 9876 ft | 294 kts | 275° |
| 2026-05-05 22:46 | 43.45384 | -115.77374 | 9507 ft | 292 kts | 275° |
| 2026-05-05 22:47 | 43.45448 | -115.80144 | 9131 ft | 292 kts | 268° |
| 2026-05-05 22:47 | 43.45184 | -115.82932 | 8737 ft | 292 kts | 263° |
| 2026-05-05 22:47 | 43.44905 | -115.85662 | 8368 ft | 291 kts | 264° |
| 2026-05-05 22:47 | 43.44624 | -115.88418 | 7998 ft | 289 kts | 264° |
| 2026-05-05 22:48 | 43.44489 | -115.91161 | 7609 ft | 285 kts | 279° |
| 2026-05-05 22:48 | 43.45134 | -115.93690 | 7245 ft | 278 kts | 304° |
| 2026-05-05 22:48 | 43.46216 | -115.95843 | 6898 ft | 275 kts | 307° |
| 2026-05-05 22:48 | 43.47315 | -115.97992 | 6537 ft | 272 kts | 307° |
| 2026-05-05 22:49 | 43.48399 | -116.00107 | 6179 ft | 266 kts | 307° |
| 2026-05-05 22:49 | 43.49423 | -116.02181 | 5838 ft | 256 kts | 301° |
| 2026-05-05 22:49 | 43.50234 | -116.04319 | 5495 ft | 245 kts | 297° |
| 2026-05-05 22:49 | 43.50929 | -116.06332 | 5181 ft | 224 kts | 296° |
| 2026-05-05 22:50 | 43.51556 | -116.08208 | 4891 ft | 206 kts | 296° |
| 2026-05-05 22:50 | 43.52128 | -116.09912 | 4637 ft | 185 kts | 296° |
| 2026-05-05 22:50 | 43.52630 | -116.11403 | 4406 ft | 159 kts | 296° |
| 2026-05-05 22:50 | 43.53066 | -116.12690 | 4193 ft | 139 kts | 296° |
| 2026-05-05 22:51 | 43.53466 | -116.13863 | 4004 ft | 131 kts | 296° |
| 2026-05-05 22:51 | 43.53844 | -116.14975 | 3839 ft | 128 kts | 296° |
| 2026-05-05 22:51 | 43.54222 | -116.16086 | 3668 ft | 127 kts | 296° |
| 2026-05-05 22:51 | 43.54598 | -116.17188 | 3505 ft | 127 kts | 296° |
| 2026-05-05 22:52 | 43.54979 | -116.18314 | 3332 ft | 132 kts | 292° |
| 2026-05-05 22:52 | 43.55363 | -116.19455 | 3144 ft | 135 kts | 294° |
| 2026-05-05 22:52 | 43.55758 | -116.20606 | 2967 ft | 130 kts | 296° |
| 2026-05-05 22:52 | 43.56127 | -116.21678 | 2882 ft | 112 kts | 295° |
| 2026-05-05 22:53 | 43.56383 | -116.22441 | 2881 ft | 63 kts | 294° |
| 2026-05-05 22:53 | 43.56549 | -116.22942 | 2884 ft | 54 kts | 296° |
| 2026-05-05 22:53 | 43.56677 | -116.23175 | 2882 ft | 24 kts | 11° |
| 2026-05-05 22:53 | 43.56753 | -116.23129 | 2881 ft | 2 kts | 24° |
| 2026-05-05 22:54 | 43.56812 | -116.23092 | 2879 ft | 17 kts | 24° |
| 2026-05-05 22:54 | 43.56905 | -116.22994 | 2881 ft | 17 kts | 90° |
| 2026-05-05 22:54 | 43.56851 | -116.22834 | 2881 ft | 19 kts | 116° |
| 2026-05-05 22:54 | 43.56796 | -116.22670 | 2881 ft | 19 kts | 115° |
| 2026-05-05 22:55 | 43.56740 | -116.22513 | 2881 ft | 18 kts | 116° |
| 2026-05-05 22:55 | 43.56696 | -116.22387 | 2881 ft | 13 kts | 115° |
| 2026-05-05 22:55 | 43.56659 | -116.22272 | 2881 ft | 12 kts | 114° |
| 2026-05-05 22:55 | 43.56631 | -116.22167 | 2881 ft | 11 kts | 92° |
| 2026-05-05 22:56 | 43.56674 | -116.22108 | 2881 ft | 8 kts | 22° |
| 2026-05-05 22:56 | 43.56718 | -116.22080 | 2881 ft | 4 kts | 24° |
| 2026-05-05 22:56 | 43.56729 | -116.22073 | 2881 ft | 0 kts | 24° |